首页
METAR-TAF:

METAR-TAF

机场 :

溫哥華國際機場

溫哥華, 不列颠哥伦比亚, 加拿大

纬度: 49-11N, 经度: 123-10W, 海拔: 3米

当前天气观测

该预报发布于1小时和7分钟前的12:00 UTC
风速6节,风向西北
温度 16°C
湿度 94%
气压 1013 hPa
能見度: 48.3公里
多云层高于21000英尺

METAR: CYVR 211200Z CCA 31006KT 30SM BKN210 16/15 A2991 RMK CI5 SLP130 DENSITY ALT 200FT

时间: 06:07 (13:07 UTC)

预报

该预报发布于1小时和28分钟前的11:39 UTC
预报有效从21日的 12点(UTC)到 22日的 18点(UTC)
风速5节,风向西北
能見度: 10公里
散云层高于15000英尺
散云层高于20000英尺
成为
从 21日的 16点(UTC)到 21日的 18点(UTC)
风速15节,风向西转西北
从 22日的 0000点(UTC)
风速10节,风向西
能見度: 10公里
散云层高于6000英尺
散云层高于15000英尺

TAF: CYVR 211139Z 2112/2218 32005KT P6SM SCT150 SCT200 BECMG 2116/2118 29015KT FM220000 28010KT P6SM SCT060 SCT150 RMK NXT FCST BY 211500Z

超过4000个机场的气象观测和天气预报(METAR&TAF报告)。

可查询的气象台以黄色和红色小点在地图上表示。

将鼠标移到小点上方,可查看气象台名称。

然后点击查看天气观测和预报。

如需切换地图:点击带黑十字的绿色按钮放大地图;点击带横线的绿色按钮缩小地图;或者点击绿色箭头查看邻近地区的地图。


METAR-TAF: